Elabuga, Russia
Current Conditions -  °F | °C
As of 12:00 PM on Tuesday 21 Oct 2014 (Local Time) from UWKE Reporting Station
Light Snow Light Snow  
Wind Chill: 14°   Ceiling: 800
Heat Index: 27°   Visibility: 4mi
Dew Point: 23°   Wind: 16mph
Humidity: 86%   Direction: 70°ENE
Pressure: 29.59"   Gusts: NA
Location:  55.77°N, 52.07°E
Report Text: UWKE 210900Z 07007MPS 7000 -SN OVC008 M03/M05 Q1002 NOSIG RMK QFE735/0980 03090070
Loading
Personal Weather Stations






























Interactive Weather Map
Tropical Storm Tracking
New forecast layout! Learn more

10-Day Weather Forecast

Advertisements
Track Severe Weather on mobile